sensor_id;sensor_type;location;lat;lon;timestamp;P1;durP1;ratioP1;P2;durP2;ratioP2
17844;SDS011;9047;53.486;10.218;2023-04-24T00:01:59;8.15;;;6.72;;
17844;SDS011;9047;53.486;10.218;2023-04-24T00:04:30;8.52;;;6.90;;
17844;SDS011;9047;53.486;10.218;2023-04-24T00:06:58;8.48;;;6.45;;
17844;SDS011;9047;53.486;10.218;2023-04-24T00:09:29;7.80;;;6.25;;
17844;SDS011;9047;53.486;10.218;2023-04-24T00:11:56;7.95;;;6.05;;
17844;SDS011;9047;53.486;10.218;2023-04-24T00:14:24;8.18;;;6.07;;
17844;SDS011;9047;53.486;10.218;2023-04-24T00:16:54;8.43;;;5.93;;
17844;SDS011;9047;53.486;10.218;2023-04-24T00:19:22;8.07;;;6.68;;
17844;SDS011;9047;53.486;10.218;2023-04-24T00:21:51;8.32;;;6.32;;
17844;SDS011;9047;53.486;10.218;2023-04-24T00:24:19;7.05;;;5.97;;
17844;SDS011;9047;53.486;10.218;2023-04-24T00:26:46;10.02;;;6.60;;
17844;SDS011;9047;53.486;10.218;2023-04-24T00:29:16;9.40;;;6.38;;
17844;SDS011;9047;53.486;10.218;2023-04-24T00:31:46;7.10;;;6.18;;
17844;SDS011;9047;53.486;10.218;2023-04-24T00:34:14;8.73;;;6.63;;
17844;SDS011;9047;53.486;10.218;2023-04-24T00:36:43;7.57;;;6.75;;
17844;SDS011;9047;53.486;10.218;2023-04-24T00:39:13;9.43;;;7.18;;
17844;SDS011;9047;53.486;10.218;2023-04-24T00:41:40;9.55;;;6.60;;
17844;SDS011;9047;53.486;10.218;2023-04-24T00:44:08;9.13;;;7.18;;
17844;SDS011;9047;53.486;10.218;2023-04-24T00:46:36;11.02;;;7.20;;
17844;SDS011;9047;53.486;10.218;2023-04-24T00:49:05;9.18;;;6.95;;
17844;SDS011;9047;53.486;10.218;2023-04-24T00:51:35;9.80;;;7.25;;
17844;SDS011;9047;53.486;10.218;2023-04-24T00:54:02;8.93;;;6.57;;
17844;SDS011;9047;53.486;10.218;2023-04-24T00:56:44;7.97;;;6.32;;
17844;SDS011;9047;53.486;10.218;2023-04-24T00:59:12;9.63;;;7.28;;
17844;SDS011;9047;53.486;10.218;2023-04-24T01:01:42;7.65;;;6.85;;
17844;SDS011;9047;53.486;10.218;2023-04-24T01:04:11;8.95;;;7.28;;
17844;SDS011;9047;53.486;10.218;2023-04-24T01:06:41;7.80;;;6.60;;
17844;SDS011;9047;53.486;10.218;2023-04-24T01:09:14;7.95;;;6.72;;
17844;SDS011;9047;53.486;10.218;2023-04-24T01:11:46;9.85;;;7.05;;
17844;SDS011;9047;53.486;10.218;2023-04-24T01:14:17;8.07;;;7.05;;
17844;SDS011;9047;53.486;10.218;2023-04-24T01:16:48;7.57;;;6.35;;
17844;SDS011;9047;53.486;10.218;2023-04-24T01:19:21;8.45;;;6.85;;
17844;SDS011;9047;53.486;10.218;2023-04-24T01:21:53;7.38;;;6.60;;
17844;SDS011;9047;53.486;10.218;2023-04-24T01:24:27;7.70;;;6.28;;
17844;SDS011;9047;53.486;10.218;2023-04-24T01:26:57;7.53;;;6.22;;
17844;SDS011;9047;53.486;10.218;2023-04-24T01:29:36;9.60;;;7.00;;
17844;SDS011;9047;53.486;10.218;2023-04-24T01:32:05;9.88;;;6.65;;
17844;SDS011;9047;53.486;10.218;2023-04-24T01:34:36;9.13;;;6.63;;
17844;SDS011;9047;53.486;10.218;2023-04-24T01:37:06;7.93;;;6.38;;
17844;SDS011;9047;53.486;10.218;2023-04-24T01:39:37;9.85;;;6.65;;
17844;SDS011;9047;53.486;10.218;2023-04-24T01:42:08;9.98;;;6.30;;
17844;SDS011;9047;53.486;10.218;2023-04-24T01:44:35;6.72;;;5.70;;
17844;SDS011;9047;53.486;10.218;2023-04-24T01:47:16;6.65;;;5.35;;
17844;SDS011;9047;53.486;10.218;2023-04-24T01:49:45;8.30;;;5.65;;
17844;SDS011;9047;53.486;10.218;2023-04-24T01:52:14;7.28;;;5.30;;
17844;SDS011;9047;53.486;10.218;2023-04-24T01:54:43;6.22;;;5.50;;
17844;SDS011;9047;53.486;10.218;2023-04-24T01:57:11;5.75;;;5.15;;
17844;SDS011;9047;53.486;10.218;2023-04-24T01:59:39;6.60;;;5.45;;
17844;SDS011;9047;53.486;10.218;2023-04-24T02:02:22;7.47;;;5.40;;
17844;SDS011;9047;53.486;10.218;2023-04-24T02:04:57;6.68;;;5.32;;
17844;SDS011;9047;53.486;10.218;2023-04-24T02:07:30;6.30;;;4.95;;
17844;SDS011;9047;53.486;10.218;2023-04-24T02:10:03;6.85;;;5.35;;
17844;SDS011;9047;53.486;10.218;2023-04-24T02:12:50;8.13;;;5.75;;
17844;SDS011;9047;53.486;10.218;2023-04-24T02:15:31;6.07;;;5.30;;
17844;SDS011;9047;53.486;10.218;2023-04-24T02:18:05;6.40;;;5.15;;
17844;SDS011;9047;53.486;10.218;2023-04-24T02:20:33;7.03;;;5.35;;
17844;SDS011;9047;53.486;10.218;2023-04-24T02:23:09;6.30;;;5.20;;
17844;SDS011;9047;53.486;10.218;2023-04-24T02:25:44;6.38;;;4.82;;
17844;SDS011;9047;53.486;10.218;2023-04-24T02:28:14;5.32;;;4.65;;
17844;SDS011;9047;53.486;10.218;2023-04-24T02:30:42;5.90;;;4.68;;
17844;SDS011;9047;53.486;10.218;2023-04-24T02:33:10;5.65;;;4.63;;
17844;SDS011;9047;53.486;10.218;2023-04-24T02:35:48;4.60;;;3.90;;
17844;SDS011;9047;53.486;10.218;2023-04-24T02:38:18;5.25;;;4.05;;
17844;SDS011;9047;53.486;10.218;2023-04-24T02:40:49;4.63;;;3.80;;
17844;SDS011;9047;53.486;10.218;2023-04-24T02:43:20;4.25;;;3.30;;
17844;SDS011;9047;53.486;10.218;2023-04-24T02:45:54;4.10;;;3.55;;
17844;SDS011;9047;53.486;10.218;2023-04-24T02:48:24;3.85;;;3.00;;
17844;SDS011;9047;53.486;10.218;2023-04-24T02:50:55;4.57;;;3.08;;
17844;SDS011;9047;53.486;10.218;2023-04-24T02:53:23;4.15;;;3.25;;
17844;SDS011;9047;53.486;10.218;2023-04-24T02:55:58;3.50;;;3.00;;
17844;SDS011;9047;53.486;10.218;2023-04-24T02:58:26;3.65;;;2.67;;
17844;SDS011;9047;53.486;10.218;2023-04-24T03:00:54;3.08;;;2.30;;
17844;SDS011;9047;53.486;10.218;2023-04-24T03:03:22;3.22;;;2.50;;
17844;SDS011;9047;53.486;10.218;2023-04-24T03:05:50;2.97;;;2.50;;
17844;SDS011;9047;53.486;10.218;2023-04-24T03:08:19;2.17;;;1.98;;
17844;SDS011;9047;53.486;10.218;2023-04-24T03:10:46;3.22;;;2.00;;
17844;SDS011;9047;53.486;10.218;2023-04-24T03:13:16;2.22;;;2.03;;
17844;SDS011;9047;53.486;10.218;2023-04-24T03:15:50;2.58;;;2.10;;
17844;SDS011;9047;53.486;10.218;2023-04-24T03:18:19;2.33;;;2.00;;
17844;SDS011;9047;53.486;10.218;2023-04-24T03:20:51;3.00;;;2.00;;
17844;SDS011;9047;53.486;10.218;2023-04-24T03:23:19;2.30;;;2.10;;
17844;SDS011;9047;53.486;10.218;2023-04-24T03:25:50;2.00;;;1.70;;
17844;SDS011;9047;53.486;10.218;2023-04-24T03:28:26;2.33;;;1.95;;
17844;SDS011;9047;53.486;10.218;2023-04-24T03:30:57;2.55;;;1.75;;
17844;SDS011;9047;53.486;10.218;2023-04-24T03:33:35;2.33;;;2.00;;
17844;SDS011;9047;53.486;10.218;2023-04-24T03:36:03;3.45;;;2.00;;
17844;SDS011;9047;53.486;10.218;2023-04-24T03:38:33;2.60;;;1.90;;
17844;SDS011;9047;53.486;10.218;2023-04-24T03:41:15;2.13;;;1.90;;
17844;SDS011;9047;53.486;10.218;2023-04-24T03:43:48;3.33;;;2.20;;
17844;SDS011;9047;53.486;10.218;2023-04-24T03:46:20;2.30;;;2.10;;
17844;SDS011;9047;53.486;10.218;2023-04-24T03:48:47;2.30;;;2.00;;
17844;SDS011;9047;53.486;10.218;2023-04-24T03:51:18;3.63;;;2.20;;
17844;SDS011;9047;53.486;10.218;2023-04-24T03:54:10;2.92;;;2.13;;
17844;SDS011;9047;53.486;10.218;2023-04-24T03:56:38;2.42;;;1.80;;
17844;SDS011;9047;53.486;10.218;2023-04-24T03:59:10;2.28;;;2.05;;
17844;SDS011;9047;53.486;10.218;2023-04-24T04:01:42;2.58;;;2.20;;
17844;SDS011;9047;53.486;10.218;2023-04-24T04:04:20;2.97;;;2.05;;
17844;SDS011;9047;53.486;10.218;2023-04-24T04:06:53;2.20;;;2.00;;
17844;SDS011;9047;53.486;10.218;2023-04-24T04:09:21;2.33;;;2.10;;
17844;SDS011;9047;53.486;10.218;2023-04-24T04:11:59;3.03;;;2.05;;
17844;SDS011;9047;53.486;10.218;2023-04-24T04:18:14;2.78;;;2.22;;
17844;SDS011;9047;53.486;10.218;2023-04-24T04:20:41;2.20;;;2.00;;
17844;SDS011;9047;53.486;10.218;2023-04-24T04:23:09;2.20;;;2.00;;
17844;SDS011;9047;53.486;10.218;2023-04-24T04:25:37;3.33;;;1.95;;
17844;SDS011;9047;53.486;10.218;2023-04-24T04:28:21;2.00;;;1.80;;
17844;SDS011;9047;53.486;10.218;2023-04-24T04:30:53;2.90;;;1.80;;
17844;SDS011;9047;53.486;10.218;2023-04-24T04:33:22;2.30;;;1.90;;
17844;SDS011;9047;53.486;10.218;2023-04-24T04:35:58;3.28;;;1.80;;
17844;SDS011;9047;53.486;10.218;2023-04-24T04:39:05;2.13;;;1.70;;
17844;SDS011;9047;53.486;10.218;2023-04-24T04:41:36;2.13;;;1.60;;
17844;SDS011;9047;53.486;10.218;2023-04-24T04:44:05;3.22;;;1.90;;
17844;SDS011;9047;53.486;10.218;2023-04-24T04:46:33;1.65;;;1.55;;
17844;SDS011;9047;53.486;10.218;2023-04-24T04:49:05;1.88;;;1.52;;
17844;SDS011;9047;53.486;10.218;2023-04-24T04:51:33;2.33;;;1.80;;
17844;SDS011;9047;53.486;10.218;2023-04-24T04:54:02;2.22;;;1.92;;
17844;SDS011;9047;53.486;10.218;2023-04-24T04:56:30;1.92;;;1.70;;
17844;SDS011;9047;53.486;10.218;2023-04-24T04:58:58;2.00;;;1.77;;
17844;SDS011;9047;53.486;10.218;2023-04-24T05:01:26;2.30;;;1.90;;
17844;SDS011;9047;53.486;10.218;2023-04-24T05:03:55;2.25;;;1.73;;
17844;SDS011;9047;53.486;10.218;2023-04-24T05:06:28;5.15;;;2.80;;
17844;SDS011;9047;53.486;10.218;2023-04-24T05:08:56;3.40;;;2.10;;
17844;SDS011;9047;53.486;10.218;2023-04-24T05:11:36;3.92;;;2.15;;
17844;SDS011;9047;53.486;10.218;2023-04-24T05:14:03;2.45;;;2.20;;
17844;SDS011;9047;53.486;10.218;2023-04-24T05:16:30;2.58;;;2.38;;
17844;SDS011;9047;53.486;10.218;2023-04-24T05:18:58;2.30;;;2.10;;
17844;SDS011;9047;53.486;10.218;2023-04-24T05:21:27;3.40;;;2.40;;
17844;SDS011;9047;53.486;10.218;2023-04-24T05:23:56;5.65;;;2.70;;
17844;SDS011;9047;53.486;10.218;2023-04-24T05:26:34;5.40;;;2.65;;
17844;SDS011;9047;53.486;10.218;2023-04-24T05:29:05;2.88;;;2.40;;
17844;SDS011;9047;53.486;10.218;2023-04-24T05:31:34;3.58;;;2.40;;
17844;SDS011;9047;53.486;10.218;2023-04-24T05:34:02;3.85;;;2.25;;
17844;SDS011;9047;53.486;10.218;2023-04-24T05:36:32;2.28;;;1.70;;
17844;SDS011;9047;53.486;10.218;2023-04-24T05:39:02;5.40;;;2.17;;
17844;SDS011;9047;53.486;10.218;2023-04-24T05:41:32;4.05;;;1.50;;
17844;SDS011;9047;53.486;10.218;2023-04-24T05:43:59;4.57;;;1.70;;
17844;SDS011;9047;53.486;10.218;2023-04-24T05:46:30;2.67;;;1.40;;
17844;SDS011;9047;53.486;10.218;2023-04-24T05:49:03;2.20;;;1.30;;
17844;SDS011;9047;53.486;10.218;2023-04-24T05:51:33;2.63;;;1.30;;
17844;SDS011;9047;53.486;10.218;2023-04-24T05:54:06;1.83;;;1.30;;
17844;SDS011;9047;53.486;10.218;2023-04-24T05:56:40;1.90;;;1.20;;
17844;SDS011;9047;53.486;10.218;2023-04-24T05:59:16;1.88;;;1.40;;
17844;SDS011;9047;53.486;10.218;2023-04-24T06:01:45;2.90;;;1.60;;
17844;SDS011;9047;53.486;10.218;2023-04-24T06:04:23;3.83;;;1.40;;
17844;SDS011;9047;53.486;10.218;2023-04-24T06:07:01;1.63;;;1.33;;
17844;SDS011;9047;53.486;10.218;2023-04-24T06:09:29;6.75;;;3.25;;
17844;SDS011;9047;53.486;10.218;2023-04-24T06:11:57;3.17;;;1.35;;
17844;SDS011;9047;53.486;10.218;2023-04-24T06:14:28;1.25;;;1.00;;
17844;SDS011;9047;53.486;10.218;2023-04-24T06:16:57;1.40;;;1.10;;
17844;SDS011;9047;53.486;10.218;2023-04-24T06:19:26;2.22;;;1.08;;
17844;SDS011;9047;53.486;10.218;2023-04-24T06:22:01;1.52;;;0.85;;
17844;SDS011;9047;53.486;10.218;2023-04-24T06:24:28;2.17;;;0.93;;
17844;SDS011;9047;53.486;10.218;2023-04-24T06:27:00;2.60;;;1.00;;
17844;SDS011;9047;53.486;10.218;2023-04-24T06:29:28;3.13;;;0.90;;
17844;SDS011;9047;53.486;10.218;2023-04-24T06:32:20;1.40;;;0.93;;
17844;SDS011;9047;53.486;10.218;2023-04-24T06:34:58;2.53;;;1.10;;
17844;SDS011;9047;53.486;10.218;2023-04-24T06:37:42;3.88;;;1.00;;
17844;SDS011;9047;53.486;10.218;2023-04-24T06:40:09;1.90;;;1.70;;
17844;SDS011;9047;53.486;10.218;2023-04-24T06:42:40;2.03;;;1.10;;
17844;SDS011;9047;53.486;10.218;2023-04-24T06:45:13;1.67;;;1.20;;
17844;SDS011;9047;53.486;10.218;2023-04-24T06:47:47;2.15;;;1.30;;
17844;SDS011;9047;53.486;10.218;2023-04-24T06:50:14;2.70;;;1.08;;
17844;SDS011;9047;53.486;10.218;2023-04-24T06:52:52;1.60;;;1.10;;
17844;SDS011;9047;53.486;10.218;2023-04-24T06:55:20;2.85;;;1.50;;
17844;SDS011;9047;53.486;10.218;2023-04-24T06:57:49;1.70;;;1.20;;
17844;SDS011;9047;53.486;10.218;2023-04-24T07:00:18;1.27;;;1.15;;
17844;SDS011;9047;53.486;10.218;2023-04-24T07:02:54;2.22;;;1.13;;
17844;SDS011;9047;53.486;10.218;2023-04-24T07:05:25;4.15;;;1.60;;
17844;SDS011;9047;53.486;10.218;2023-04-24T07:07:56;1.10;;;1.00;;
17844;SDS011;9047;53.486;10.218;2023-04-24T07:10:29;1.55;;;1.35;;
17844;SDS011;9047;53.486;10.218;2023-04-24T07:13:04;1.83;;;1.20;;
17844;SDS011;9047;53.486;10.218;2023-04-24T07:15:34;3.63;;;1.30;;
17844;SDS011;9047;53.486;10.218;2023-04-24T07:18:09;1.75;;;1.17;;
17844;SDS011;9047;53.486;10.218;2023-04-24T07:20:39;1.95;;;1.30;;
17844;SDS011;9047;53.486;10.218;2023-04-24T07:23:17;1.77;;;1.50;;
17844;SDS011;9047;53.486;10.218;2023-04-24T07:25:46;2.15;;;1.38;;
17844;SDS011;9047;53.486;10.218;2023-04-24T07:28:15;3.10;;;1.48;;
17844;SDS011;9047;53.486;10.218;2023-04-24T07:30:56;1.40;;;1.13;;
17844;SDS011;9047;53.486;10.218;2023-04-24T07:33:27;1.63;;;1.50;;
17844;SDS011;9047;53.486;10.218;2023-04-24T07:35:56;5.28;;;1.70;;
17844;SDS011;9047;53.486;10.218;2023-04-24T07:38:26;3.10;;;1.42;;
17844;SDS011;9047;53.486;10.218;2023-04-24T07:41:01;2.45;;;1.60;;
17844;SDS011;9047;53.486;10.218;2023-04-24T07:43:30;2.65;;;1.50;;
17844;SDS011;9047;53.486;10.218;2023-04-24T07:46:03;5.00;;;1.80;;
17844;SDS011;9047;53.486;10.218;2023-04-24T07:48:31;3.70;;;1.60;;
17844;SDS011;9047;53.486;10.218;2023-04-24T07:51:00;3.35;;;1.70;;
17844;SDS011;9047;53.486;10.218;2023-04-24T07:53:35;3.35;;;1.70;;
17844;SDS011;9047;53.486;10.218;2023-04-24T07:56:24;4.05;;;1.90;;
17844;SDS011;9047;53.486;10.218;2023-04-24T07:58:58;2.72;;;1.90;;
17844;SDS011;9047;53.486;10.218;2023-04-24T08:01:30;2.03;;;1.60;;
17844;SDS011;9047;53.486;10.218;2023-04-24T08:04:00;2.40;;;1.60;;
17844;SDS011;9047;53.486;10.218;2023-04-24T08:06:29;1.98;;;1.50;;
17844;SDS011;9047;53.486;10.218;2023-04-24T08:09:03;2.97;;;1.60;;
17844;SDS011;9047;53.486;10.218;2023-04-24T08:11:33;2.22;;;1.50;;
17844;SDS011;9047;53.486;10.218;2023-04-24T08:14:01;2.20;;;1.60;;
17844;SDS011;9047;53.486;10.218;2023-04-24T08:16:46;4.25;;;2.58;;
17844;SDS011;9047;53.486;10.218;2023-04-24T08:19:27;3.95;;;2.40;;
17844;SDS011;9047;53.486;10.218;2023-04-24T08:21:56;3.38;;;1.90;;
17844;SDS011;9047;53.486;10.218;2023-04-24T08:24:30;2.65;;;2.08;;
17844;SDS011;9047;53.486;10.218;2023-04-24T08:27:05;2.92;;;2.20;;
17844;SDS011;9047;53.486;10.218;2023-04-24T08:29:41;3.67;;;2.45;;
17844;SDS011;9047;53.486;10.218;2023-04-24T08:32:15;3.30;;;2.42;;
17844;SDS011;9047;53.486;10.218;2023-04-24T08:34:47;5.18;;;3.00;;
17844;SDS011;9047;53.486;10.218;2023-04-24T08:37:14;3.50;;;3.10;;
17844;SDS011;9047;53.486;10.218;2023-04-24T08:45:37;3.33;;;3.03;;
17844;SDS011;9047;53.486;10.218;2023-04-24T08:48:35;3.83;;;3.25;;
17844;SDS011;9047;53.486;10.218;2023-04-24T08:51:22;5.45;;;3.67;;
17844;SDS011;9047;53.486;10.218;2023-04-24T08:53:53;3.80;;;3.25;;
17844;SDS011;9047;53.486;10.218;2023-04-24T08:56:29;5.60;;;3.40;;
17844;SDS011;9047;53.486;10.218;2023-04-24T08:59:08;4.10;;;3.25;;
17844;SDS011;9047;53.486;10.218;2023-04-24T09:01:53;4.03;;;3.60;;
17844;SDS011;9047;53.486;10.218;2023-04-24T09:04:35;6.75;;;3.90;;
17844;SDS011;9047;53.486;10.218;2023-04-24T09:07:07;12.25;;;4.00;;
17844;SDS011;9047;53.486;10.218;2023-04-24T09:09:46;6.80;;;3.97;;
17844;SDS011;9047;53.486;10.218;2023-04-24T09:15:40;5.82;;;3.70;;
17844;SDS011;9047;53.486;10.218;2023-04-24T09:18:16;6.25;;;3.78;;
17844;SDS011;9047;53.486;10.218;2023-04-24T09:21:00;5.97;;;3.92;;
17844;SDS011;9047;53.486;10.218;2023-04-24T09:23:33;4.82;;;3.90;;
17844;SDS011;9047;53.486;10.218;2023-04-24T09:26:05;4.97;;;3.83;;
17844;SDS011;9047;53.486;10.218;2023-04-24T09:28:39;4.85;;;3.40;;
17844;SDS011;9047;53.486;10.218;2023-04-24T09:31:09;3.95;;;3.47;;
17844;SDS011;9047;53.486;10.218;2023-04-24T09:33:39;4.20;;;3.15;;
17844;SDS011;9047;53.486;10.218;2023-04-24T09:36:27;4.60;;;3.30;;
17844;SDS011;9047;53.486;10.218;2023-04-24T09:39:02;8.25;;;3.72;;
17844;SDS011;9047;53.486;10.218;2023-04-24T09:41:35;5.53;;;3.83;;
17844;SDS011;9047;53.486;10.218;2023-04-24T09:44:16;4.38;;;3.40;;
17844;SDS011;9047;53.486;10.218;2023-04-24T09:46:49;3.90;;;3.40;;
17844;SDS011;9047;53.486;10.218;2023-04-24T09:50:01;5.57;;;3.72;;
17844;SDS011;9047;53.486;10.218;2023-04-24T09:52:58;7.72;;;3.33;;
17844;SDS011;9047;53.486;10.218;2023-04-24T09:55:47;5.00;;;3.10;;
17844;SDS011;9047;53.486;10.218;2023-04-24T09:58:40;6.35;;;3.22;;
17844;SDS011;9047;53.486;10.218;2023-04-24T10:01:17;5.18;;;3.50;;
17844;SDS011;9047;53.486;10.218;2023-04-24T10:04:00;4.78;;;3.75;;
17844;SDS011;9047;53.486;10.218;2023-04-24T10:06:42;8.75;;;4.03;;
17844;SDS011;9047;53.486;10.218;2023-04-24T10:09:25;6.95;;;3.70;;
17844;SDS011;9047;53.486;10.218;2023-04-24T10:12:06;6.65;;;4.40;;
17844;SDS011;9047;53.486;10.218;2023-04-24T10:14:39;4.90;;;3.80;;
17844;SDS011;9047;53.486;10.218;2023-04-24T10:17:16;6.35;;;4.25;;
17844;SDS011;9047;53.486;10.218;2023-04-24T10:19:46;5.30;;;3.80;;
17844;SDS011;9047;53.486;10.218;2023-04-24T10:22:22;5.47;;;4.80;;
17844;SDS011;9047;53.486;10.218;2023-04-24T10:25:01;4.70;;;4.20;;
17844;SDS011;9047;53.486;10.218;2023-04-24T10:27:39;5.53;;;4.30;;
17844;SDS011;9047;53.486;10.218;2023-04-24T10:30:12;13.90;;;5.07;;
17844;SDS011;9047;53.486;10.218;2023-04-24T10:32:52;6.63;;;4.80;;
17844;SDS011;9047;53.486;10.218;2023-04-24T10:35:30;5.68;;;4.47;;
17844;SDS011;9047;53.486;10.218;2023-04-24T10:38:01;9.93;;;4.90;;
17844;SDS011;9047;53.486;10.218;2023-04-24T10:40:34;7.10;;;4.90;;
17844;SDS011;9047;53.486;10.218;2023-04-24T10:43:13;6.95;;;4.50;;
17844;SDS011;9047;53.486;10.218;2023-04-24T10:46:16;10.10;;;5.35;;
17844;SDS011;9047;53.486;10.218;2023-04-24T10:48:54;6.70;;;5.30;;
17844;SDS011;9047;53.486;10.218;2023-04-24T10:51:43;8.52;;;5.10;;
17844;SDS011;9047;53.486;10.218;2023-04-24T10:54:33;6.63;;;5.05;;
17844;SDS011;9047;53.486;10.218;2023-04-24T10:57:28;8.70;;;5.63;;
17844;SDS011;9047;53.486;10.218;2023-04-24T11:02:54;8.02;;;6.30;;
17844;SDS011;9047;53.486;10.218;2023-04-24T11:08:58;11.52;;;6.70;;
17844;SDS011;9047;53.486;10.218;2023-04-24T11:11:43;10.52;;;7.35;;
17844;SDS011;9047;53.486;10.218;2023-04-24T11:14:15;11.88;;;7.22;;
17844;SDS011;9047;53.486;10.218;2023-04-24T11:16:51;8.18;;;6.82;;
17844;SDS011;9047;53.486;10.218;2023-04-24T11:19:33;9.43;;;6.07;;
17844;SDS011;9047;53.486;10.218;2023-04-24T11:22:27;8.57;;;6.43;;
17844;SDS011;9047;53.486;10.218;2023-04-24T11:25:04;8.32;;;5.60;;
17844;SDS011;9047;53.486;10.218;2023-04-24T11:27:38;7.90;;;5.50;;
17844;SDS011;9047;53.486;10.218;2023-04-24T11:30:29;10.07;;;5.88;;
17844;SDS011;9047;53.486;10.218;2023-04-24T11:33:04;8.10;;;5.82;;
17844;SDS011;9047;53.486;10.218;2023-04-24T11:35:35;9.70;;;5.70;;
17844;SDS011;9047;53.486;10.218;2023-04-24T11:38:06;8.68;;;5.50;;
17844;SDS011;9047;53.486;10.218;2023-04-24T11:40:39;6.85;;;5.03;;
17844;SDS011;9047;53.486;10.218;2023-04-24T11:43:07;7.82;;;5.32;;
17844;SDS011;9047;53.486;10.218;2023-04-24T11:45:38;6.90;;;5.50;;
17844;SDS011;9047;53.486;10.218;2023-04-24T11:48:21;6.80;;;4.72;;
17844;SDS011;9047;53.486;10.218;2023-04-24T11:50:48;6.55;;;4.28;;
17844;SDS011;9047;53.486;10.218;2023-04-24T11:53:18;7.47;;;4.07;;
17844;SDS011;9047;53.486;10.218;2023-04-24T11:58:43;8.68;;;3.83;;
17844;SDS011;9047;53.486;10.218;2023-04-24T12:01:16;5.55;;;3.60;;
17844;SDS011;9047;53.486;10.218;2023-04-24T12:03:46;6.18;;;3.72;;
17844;SDS011;9047;53.486;10.218;2023-04-24T12:06:16;5.28;;;3.55;;
17844;SDS011;9047;53.486;10.218;2023-04-24T12:08:47;5.90;;;3.35;;
17844;SDS011;9047;53.486;10.218;2023-04-24T12:11:23;5.22;;;3.78;;
17844;SDS011;9047;53.486;10.218;2023-04-24T12:13:55;5.47;;;3.28;;
17844;SDS011;9047;53.486;10.218;2023-04-24T12:16:26;6.95;;;3.78;;
17844;SDS011;9047;53.486;10.218;2023-04-24T12:19:17;4.25;;;3.45;;
17844;SDS011;9047;53.486;10.218;2023-04-24T12:21:59;6.82;;;3.85;;
17844;SDS011;9047;53.486;10.218;2023-04-24T12:24:32;4.47;;;3.63;;
17844;SDS011;9047;53.486;10.218;2023-04-24T12:27:01;5.45;;;3.50;;
17844;SDS011;9047;53.486;10.218;2023-04-24T12:29:31;4.53;;;3.50;;
17844;SDS011;9047;53.486;10.218;2023-04-24T12:32:15;5.65;;;3.63;;
17844;SDS011;9047;53.486;10.218;2023-04-24T12:34:45;9.05;;;3.83;;
17844;SDS011;9047;53.486;10.218;2023-04-24T12:37:13;7.07;;;3.70;;
17844;SDS011;9047;53.486;10.218;2023-04-24T12:39:58;6.60;;;4.05;;
17844;SDS011;9047;53.486;10.218;2023-04-24T12:42:32;7.07;;;4.50;;
17844;SDS011;9047;53.486;10.218;2023-04-24T12:45:02;8.52;;;4.40;;
17844;SDS011;9047;53.486;10.218;2023-04-24T12:47:34;6.28;;;4.20;;
17844;SDS011;9047;53.486;10.218;2023-04-24T12:50:03;4.82;;;4.28;;
17844;SDS011;9047;53.486;10.218;2023-04-24T12:52:33;5.03;;;3.78;;
17844;SDS011;9047;53.486;10.218;2023-04-24T12:55:03;6.47;;;4.30;;
17844;SDS011;9047;53.486;10.218;2023-04-24T12:57:40;6.25;;;4.10;;
17844;SDS011;9047;53.486;10.218;2023-04-24T13:00:10;5.78;;;3.95;;
17844;SDS011;9047;53.486;10.218;2023-04-24T13:02:46;5.55;;;3.65;;
17844;SDS011;9047;53.486;10.218;2023-04-24T13:05:25;5.97;;;4.13;;
17844;SDS011;9047;53.486;10.218;2023-04-24T13:08:15;5.40;;;3.67;;
17844;SDS011;9047;53.486;10.218;2023-04-24T13:10:57;4.45;;;3.08;;
17844;SDS011;9047;53.486;10.218;2023-04-24T13:13:27;5.07;;;3.78;;
17844;SDS011;9047;53.486;10.218;2023-04-24T13:15:58;5.20;;;3.75;;
17844;SDS011;9047;53.486;10.218;2023-04-24T13:18:36;6.00;;;3.75;;
17844;SDS011;9047;53.486;10.218;2023-04-24T13:21:12;9.40;;;4.82;;
17844;SDS011;9047;53.486;10.218;2023-04-24T13:23:47;4.80;;;3.45;;
17844;SDS011;9047;53.486;10.218;2023-04-24T13:26:16;8.20;;;3.53;;
17844;SDS011;9047;53.486;10.218;2023-04-24T13:28:46;6.65;;;3.50;;
17844;SDS011;9047;53.486;10.218;2023-04-24T13:31:14;5.22;;;3.50;;
17844;SDS011;9047;53.486;10.218;2023-04-24T13:33:46;8.10;;;4.40;;
17844;SDS011;9047;53.486;10.218;2023-04-24T13:36:14;4.63;;;4.20;;
17844;SDS011;9047;53.486;10.218;2023-04-24T13:38:41;4.90;;;4.07;;
17844;SDS011;9047;53.486;10.218;2023-04-24T13:41:11;4.50;;;3.97;;
17844;SDS011;9047;53.486;10.218;2023-04-24T13:43:54;5.75;;;3.72;;
17844;SDS011;9047;53.486;10.218;2023-04-24T13:46:44;3.53;;;3.20;;
17844;SDS011;9047;53.486;10.218;2023-04-24T13:49:17;4.45;;;3.28;;
17844;SDS011;9047;53.486;10.218;2023-04-24T13:51:50;5.28;;;3.38;;
17844;SDS011;9047;53.486;10.218;2023-04-24T13:54:24;3.40;;;2.95;;
17844;SDS011;9047;53.486;10.218;2023-04-24T13:57:11;3.75;;;2.90;;
17844;SDS011;9047;53.486;10.218;2023-04-24T13:59:43;5.75;;;3.08;;
17844;SDS011;9047;53.486;10.218;2023-04-24T14:02:14;2.90;;;2.65;;
17844;SDS011;9047;53.486;10.218;2023-04-24T14:04:45;5.43;;;2.80;;
17844;SDS011;9047;53.486;10.218;2023-04-24T14:07:31;3.65;;;2.72;;
17844;SDS011;9047;53.486;10.218;2023-04-24T14:10:16;3.92;;;2.60;;
17844;SDS011;9047;53.486;10.218;2023-04-24T14:13:03;3.58;;;2.70;;
17844;SDS011;9047;53.486;10.218;2023-04-24T14:16:07;3.97;;;2.70;;
17844;SDS011;9047;53.486;10.218;2023-04-24T14:18:54;4.50;;;2.92;;
17844;SDS011;9047;53.486;10.218;2023-04-24T14:21:39;4.38;;;3.00;;
17844;SDS011;9047;53.486;10.218;2023-04-24T14:24:31;2.83;;;2.33;;
17844;SDS011;9047;53.486;10.218;2023-04-24T14:27:16;5.55;;;2.35;;
17844;SDS011;9047;53.486;10.218;2023-04-24T14:29:48;2.90;;;2.28;;
17844;SDS011;9047;53.486;10.218;2023-04-24T14:35:47;3.13;;;2.30;;
17844;SDS011;9047;53.486;10.218;2023-04-24T14:38:15;3.13;;;2.58;;
17844;SDS011;9047;53.486;10.218;2023-04-24T14:40:43;2.97;;;2.30;;
17844;SDS011;9047;53.486;10.218;2023-04-24T14:45:57;5.82;;;2.83;;
17844;SDS011;9047;53.486;10.218;2023-04-24T14:48:27;3.63;;;2.63;;
17844;SDS011;9047;53.486;10.218;2023-04-24T14:51:27;3.30;;;2.60;;
17844;SDS011;9047;53.486;10.218;2023-04-24T14:54:16;2.83;;;2.53;;
17844;SDS011;9047;53.486;10.218;2023-04-24T14:56:49;4.05;;;2.28;;
17844;SDS011;9047;53.486;10.218;2023-04-24T14:59:22;3.33;;;2.47;;
17844;SDS011;9047;53.486;10.218;2023-04-24T15:01:50;2.75;;;2.30;;
17844;SDS011;9047;53.486;10.218;2023-04-24T15:04:28;2.35;;;2.15;;
17844;SDS011;9047;53.486;10.218;2023-04-24T15:07:12;2.97;;;1.80;;
17844;SDS011;9047;53.486;10.218;2023-04-24T15:09:40;4.50;;;2.30;;
17844;SDS011;9047;53.486;10.218;2023-04-24T15:12:12;3.60;;;2.22;;
17844;SDS011;9047;53.486;10.218;2023-04-24T15:14:48;3.53;;;2.58;;
17844;SDS011;9047;53.486;10.218;2023-04-24T15:17:21;3.97;;;3.30;;
17844;SDS011;9047;53.486;10.218;2023-04-24T15:19:52;5.70;;;3.70;;
17844;SDS011;9047;53.486;10.218;2023-04-24T15:25:14;4.10;;;3.70;;
17844;SDS011;9047;53.486;10.218;2023-04-24T15:27:48;4.32;;;3.92;;
17844;SDS011;9047;53.486;10.218;2023-04-24T15:30:18;5.93;;;4.45;;
17844;SDS011;9047;53.486;10.218;2023-04-24T15:32:45;4.15;;;3.72;;
17844;SDS011;9047;53.486;10.218;2023-04-24T15:35:16;4.38;;;3.97;;
17844;SDS011;9047;53.486;10.218;2023-04-24T15:38:04;4.50;;;4.05;;
17844;SDS011;9047;53.486;10.218;2023-04-24T15:40:45;5.30;;;4.53;;
17844;SDS011;9047;53.486;10.218;2023-04-24T15:43:13;6.05;;;4.55;;
17844;SDS011;9047;53.486;10.218;2023-04-24T15:45:43;6.07;;;4.30;;
17844;SDS011;9047;53.486;10.218;2023-04-24T15:48:14;5.15;;;4.18;;
17844;SDS011;9047;53.486;10.218;2023-04-24T15:50:57;3.42;;;2.20;;
17844;SDS011;9047;53.486;10.218;2023-04-24T15:54:07;3.22;;;2.10;;
17844;SDS011;9047;53.486;10.218;2023-04-24T15:56:41;3.05;;;2.10;;
17844;SDS011;9047;53.486;10.218;2023-04-24T15:59:14;2.45;;;1.85;;
17844;SDS011;9047;53.486;10.218;2023-04-24T16:01:42;4.40;;;2.25;;